ěÝzenÝ letovÚho provozu ╚eskÚ republiky
Letiste: LKNA Aktualizace: 25.05.2024 07:59:39  UTC
 METAR LKNA 25.05. 08:00 ...
METAR LKNA 250800Z 15009KT 9999 BKN007 OVC012 15/14 Q1019 RMK BLACK=
 TAF LKNA 25.05. 05:00 ...
TAF LKNA 250500Z 2506/2606 11006KT 5000 BR BKN003      BECMG 2506/2508 9999 BKN015      BECMG 2508/2510 SCT025      TEMPO 2508/2521 14012KT 5000 SHRA BKN020TCU      PROB40 TEMPO 2511/2519 14018KT 3000 TSRA BKN012CB BKN025      BECMG 2600/2602 2000 BR BKN005      PROB30 TEMPO 2601/2606 0800 FG OVC002=